Time;durP1;ratioP1;P1;durP2;ratioP2;P2;SDS_P1;SDS_P2;PMS_P1;PMS_P2;Temp;Humidity;BMP_temperature;BMP_pressure;BME280_temperature;BME280_humidity;BME280_pressure;Samples;Min_cycle;Max_cycle;Signal;HPM_P1;HPM_P2
2022/02/11 00:00:36;;;;;;;;;;;;;;;;;;5082516;28;19955;-64
2022/02/11 00:08:12;;;;;;;;;;;;;;;;;;5083557;28;19904;-64
2022/02/11 00:10:37;;;;;;;;;;;;;;;;;;5082843;28;19907;-64
2022/02/11 00:13:04;;;;;;;;;;;;;;;;;;5085986;28;19912;-64
2022/02/11 00:17:59;;;;;;;;;;;;;;;;;;5088995;28;19908;-64
2022/02/11 00:20:25;;;;;;;;;;;;;;;;;;5090389;28;20244;-64
2022/02/11 00:22:51;;;;;;;;;;;;;;;;;;5085264;28;20036;-64
2022/02/11 00:25:17;;;;;;;;;;;;;;;;;;5085235;28;20393;-64
2022/02/11 00:41:46;;;;;;;;;;;;;;;;;;5084769;28;19918;-64
2022/02/11 01:03:04;;;;;;;;;;;;;;;;;;5088398;28;20424;-64
2022/02/11 01:05:30;;;;;;;;;;;;;;;;;;5090737;28;19916;-64
2022/02/11 01:07:56;;;;;;;;;;;;;;;;;;5083960;28;19914;-64
2022/02/11 01:10:23;;;;;;;;;;;;;;;;;;5084584;28;19969;-63
2022/02/11 01:12:49;;;;;;;;;;;;;;;;;;5083870;28;20252;-63
2022/02/11 01:15:15;;;;;;;;;;;;;;;;;;5084702;28;19915;-64
2022/02/11 01:17:52;;;;;;;;;;;;;;;;;;5092310;28;19957;-64
2022/02/11 01:21:04;;;;;;;;;;;;;;;;;;5089179;28;19908;-64
2022/02/11 01:23:41;;;;;;;;;;;;;;;;;;5080034;28;19920;-64
2022/02/11 01:26:23;;;;;;;;;;;;;;;;;;5084515;28;19919;-63
2022/02/11 02:15:30;;;;;;;;;;;;;;;;;;5082934;28;19919;-64
2022/02/11 02:26:27;;;;;;;;;;;;;;;;;;5083123;28;20392;-64
2022/02/11 02:57:49;;;;;;;;;;;;;;;;;;5082485;28;20390;-63
2022/02/11 03:55:53;;;;;;;;;;;;;;;;;;5072118;28;20149;-63
2022/02/11 04:55:00;;;;;;;;;;;;;;;;;;5067877;28;20328;-65
2022/02/11 05:00:14;;;;;;;;;;;;;;;;;;5072850;28;20372;-65
2022/02/11 05:02:40;;;;;;;;;;;;;;;;;;5077043;28;19916;-65
2022/02/11 05:05:08;;;;;;;;;;;;;;;;;;5074501;28;19922;-65
2022/02/11 05:07:34;;;;;;;;;;;;;;;;;;5077497;28;19954;-65
2022/02/11 05:10:00;;;;;;;;;;;;;;;;;;5074570;28;19912;-65
2022/02/11 05:12:26;;;;;;;;;;;;;;;;;;5071861;28;19996;-65
2022/02/11 05:14:52;;;;;;;;;;;;;;;;;;5071550;28;19909;-65
2022/02/11 05:17:17;;;;;;;;;;;;;;;;;;5075119;28;20323;-65
2022/02/11 05:19:43;;;;;;;;;;;;;;;;;;5070525;28;19908;-65
2022/02/11 05:22:09;;;;;;;;;;;;;;;;;;5071508;28;19924;-65
2022/02/11 05:24:35;;;;;;;;;;;;;;;;;;5070146;28;19950;-65
2022/02/11 05:27:01;;;;;;;;;;;;;;;;;;5070693;28;19908;-65
2022/02/11 05:29:27;;;;;;;;;;;;;;;;;;5075466;28;19991;-64
2022/02/11 05:31:53;;;;;;;;;;;;;;;;;;5081685;28;19908;-65
2022/02/11 05:34:19;;;;;;;;;;;;;;;;;;5073390;28;19915;-65
2022/02/11 05:36:44;;;;;;;;;;;;;;;;;;5074535;28;19915;-64
2022/02/11 05:39:10;;;;;;;;;;;;;;;;;;5070598;28;19934;-64
2022/02/11 05:41:36;;;;;;;;;;;;;;;;;;5079168;28;20279;-64
2022/02/11 05:44:02;;;;;;;;;;;;;;;;;;5070613;28;19909;-64
2022/02/11 05:46:29;;;;;;;;;;;;;;;;;;5072658;28;20371;-64
2022/02/11 05:48:55;;;;;;;;;;;;;;;;;;5069662;28;19913;-64
2022/02/11 05:51:21;;;;;;;;;;;;;;;;;;5069176;28;20039;-64
2022/02/11 05:53:46;;;;;;;;;;;;;;;;;;5073888;28;19908;-64
2022/02/11 05:56:12;;;;;;;;;;;;;;;;;;5070326;28;19990;-64
2022/02/11 05:58:38;;;;;;;;;;;;;;;;;;5073232;28;19908;-64
2022/02/11 06:01:04;;;;;;;;;;;;;;;;;;5076198;28;19909;-64
2022/02/11 06:03:30;;;;;;;;;;;;;;;;;;5073702;28;19908;-64
2022/02/11 06:05:56;;;;;;;;;;;;;;;;;;5075438;28;19913;-64
2022/02/11 06:08:22;;;;;;;;;;;;;;;;;;5073023;28;19908;-64
2022/02/11 06:10:48;;;;;;;;;;;;;;;;;;5072907;28;19955;-64
2022/02/11 06:13:14;;;;;;;;;;;;;;;;;;5072443;28;19916;-64
2022/02/11 06:15:40;;;;;;;;;;;;;;;;;;5072102;28;19960;-64
2022/02/11 06:18:05;;;;;;;;;;;;;;;;;;5070417;28;20280;-64
2022/02/11 06:20:31;;;;;;;;;;;;;;;;;;5074130;28;20053;-64
2022/02/11 06:22:57;;;;;;;;;;;;;;;;;;5070856;28;19920;-64
2022/02/11 06:25:23;;;;;;;;;;;;;;;;;;5072547;28;20379;-64
2022/02/11 06:27:49;;;;;;;;;;;;;;;;;;5072216;28;20000;-64
2022/02/11 06:30:15;;;;;;;;;;;;;;;;;;5069073;28;20234;-64
2022/02/11 06:32:41;;;;;;;;;;;;;;;;;;5073120;28;20019;-64
2022/02/11 06:35:08;;;;;;;;;;;;;;;;;;5072615;28;20443;-64
2022/02/11 06:37:34;;;;;;;;;;;;;;;;;;5072616;28;19973;-64
2022/02/11 06:40:00;;;;;;;;;;;;;;;;;;5071996;28;19916;-64
2022/02/11 06:42:26;;;;;;;;;;;;;;;;;;5068468;28;19908;-64
2022/02/11 06:44:52;;;;;;;;;;;;;;;;;;5087601;28;19915;-63
2022/02/11 06:47:19;;;;;;;;;;;;;;;;;;5085648;28;20019;-64
2022/02/11 06:49:44;;;;;;;;;;;;;;;;;;5082347;28;19908;-64
2022/02/11 06:52:10;;;;;;;;;;;;;;;;;;5082628;28;19961;-64
2022/02/11 06:54:37;;;;;;;;;;;;;;;;;;5082508;28;20322;-64
2022/02/11 06:57:03;;;;;;;;;;;;;;;;;;5085553;28;19923;-63
2022/02/11 06:59:29;;;;;;;;;;;;;;;;;;5088065;28;19904;-64
2022/02/11 07:01:55;;;;;;;;;;;;;;;;;;5083784;28;20398;-62
2022/02/11 07:04:20;;;;;;;;;;;;;;;;;;5081146;28;19912;-63
2022/02/11 07:06:46;;;;;;;;;;;;;;;;;;5082063;28;20360;-63
2022/02/11 07:09:13;;;;;;;;;;;;;;;;;;5082492;28;20417;-63
2022/02/11 07:11:38;;;;;;;;;;;;;;;;;;5089749;28;19904;-64
2022/02/11 07:14:04;;;;;;;;;;;;;;;;;;5081382;28;20409;-63
2022/02/11 07:16:30;;;;;;;;;;;;;;;;;;5082053;28;20270;-63
2022/02/11 07:18:56;;;;;;;;;;;;;;;;;;5084053;28;19908;-63
2022/02/11 07:21:22;;;;;;;;;;;;;;;;;;5084635;28;20261;-63
2022/02/11 07:23:48;;;;;;;;;;;;;;;;;;5091703;28;19914;-63
2022/02/11 07:26:14;;;;;;;;;;;;;;;;;;5089434;28;19920;-64
2022/02/11 07:28:40;;;;;;;;;;;;;;;;;;5082905;28;20049;-63
2022/02/11 07:31:06;;;;;;;;;;;;;;;;;;5079102;28;19958;-63
2022/02/11 07:33:31;;;;;;;;;;;;;;;;;;5085789;28;20257;-63
2022/02/11 07:35:57;;;;;;;;;;;;;;;;;;5090644;28;19977;-64
2022/02/11 07:38:23;;;;;;;;;;;;;;;;;;5090198;28;19998;-63
2022/02/11 07:40:49;;;;;;;;;;;;;;;;;;5085832;28;19911;-64
2022/02/11 07:43:15;;;;;;;;;;;;;;;;;;5085748;28;19908;-64
2022/02/11 07:45:41;;;;;;;;;;;;;;;;;;5085348;28;19947;-64
2022/02/11 07:48:08;;;;;;;;;;;;;;;;;;5087744;28;20329;-63
2022/02/11 07:50:34;;;;;;;;;;;;;;;;;;5092581;28;19911;-63
2022/02/11 07:53:00;;;;;;;;;;;;;;;;;;5085751;28;19912;-63
2022/02/11 07:55:25;;;;;;;;;;;;;;;;;;5087220;28;19976;-63
2022/02/11 07:57:52;;;;;;;;;;;;;;;;;;5085736;28;20362;-64
2022/02/11 08:00:18;;;;;;;;;;;;;;;;;;5085330;28;19925;-63
2022/02/11 08:02:44;;;;;;;;;;;;;;;;;;5093024;28;19908;-64
2022/02/11 08:05:10;;;;;;;;;;;;;;;;;;5086485;28;19938;-63
2022/02/11 08:07:36;;;;;;;;;;;;;;;;;;5085731;28;19995;-63
2022/02/11 08:10:01;;;;;;;;;;;;;;;;;;5085155;28;19989;-63
2022/02/11 08:12:29;;;;;;;;;;;;;;;;;;5086641;28;19916;-63
2022/02/11 08:14:55;;;;;;;;;;;;;;;;;;5089537;28;19903;-64
2022/02/11 08:17:21;;;;;;;;;;;;;;;;;;5087962;28;19911;-64
2022/02/11 08:19:47;;;;;;;;;;;;;;;;;;5085363;28;20394;-64
2022/02/11 08:22:15;;;;;;;;;;;;;;;;;;5085136;28;19935;-63
2022/02/11 08:24:41;;;;;;;;;;;;;;;;;;5084658;28;19916;-64
2022/02/11 08:27:07;;;;;;;;;;;;;;;;;;5086751;28;19967;-65
2022/02/11 08:29:35;;;;;;;;;;;;;;;;;;5081725;28;20264;-63
2022/02/11 08:32:01;;;;;;;;;;;;;;;;;;5084055;28;20014;-63
2022/02/11 08:34:27;;;;;;;;;;;;;;;;;;5084639;28;20339;-63
2022/02/11 08:36:53;;;;;;;;;;;;;;;;;;5084969;28;19954;-63
2022/02/11 08:39:19;;;;;;;;;;;;;;;;;;5084634;28;20003;-63
2022/02/11 08:41:45;;;;;;;;;;;;;;;;;;5092217;28;19904;-63
2022/02/11 08:44:10;;;;;;;;;;;;;;;;;;5085635;28;19908;-63
2022/02/11 08:46:36;;;;;;;;;;;;;;;;;;5084814;28;19915;-63
2022/02/11 08:49:02;;;;;;;;;;;;;;;;;;5084547;28;20349;-63
2022/02/11 08:51:28;;;;;;;;;;;;;;;;;;5084514;28;20403;-64
2022/02/11 08:53:56;;;;;;;;;;;;;;;;;;5089794;28;20010;-63
2022/02/11 08:56:22;;;;;;;;;;;;;;;;;;5087485;28;20022;-64
2022/02/11 08:58:48;;;;;;;;;;;;;;;;;;5084473;28;19955;-63
2022/02/11 09:01:13;;;;;;;;;;;;;;;;;;5084152;28;19908;-63
2022/02/11 09:03:40;;;;;;;;;;;;;;;;;;5084576;28;19916;-63
2022/02/11 09:06:06;;;;;;;;;;;;;;;;;;5085994;28;20364;-63
2022/02/11 09:08:34;;;;;;;;;;;;;;;;;;5090662;28;19910;-63
2022/02/11 09:11:00;;;;;;;;;;;;;;;;;;5084123;28;20379;-63
2022/02/11 09:13:27;;;;;;;;;;;;;;;;;;5084366;28;19951;-63
2022/02/11 09:15:53;;;;;;;;;;;;;;;;;;5084007;28;19915;-63
2022/02/11 09:18:19;;;;;;;;;;;;;;;;;;5084074;28;19925;-63
2022/02/11 09:20:45;;;;;;;;;;;;;;;;;;5090323;28;19910;-63
2022/02/11 09:23:11;;;;;;;;;;;;;;;;;;5085216;28;20007;-63
2022/02/11 09:25:37;;;;;;;;;;;;;;;;;;5083946;28;20376;-63
2022/02/11 09:28:03;;;;;;;;;;;;;;;;;;5083613;28;19908;-63
2022/02/11 09:30:29;;;;;;;;;;;;;;;;;;5071840;28;20303;-63
2022/02/11 09:32:57;;;;;;;;;;;;;;;;;;5088882;28;20218;-64
2022/02/11 09:35:22;;;;;;;;;;;;;;;;;;5087184;28;19908;-64
2022/02/11 09:37:48;;;;;;;;;;;;;;;;;;5083917;28;20279;-64
2022/02/11 09:40:14;;;;;;;;;;;;;;;;;;5083406;28;19934;-64
2022/02/11 09:42:40;;;;;;;;;;;;;;;;;;5083554;28;19943;-64
2022/02/11 09:45:06;;;;;;;;;;;;;;;;;;5084951;28;19913;-63
2022/02/11 09:47:32;;;;;;;;;;;;;;;;;;5090112;28;19908;-63
2022/02/11 09:49:58;;;;;;;;;;;;;;;;;;5082768;28;19998;-63
2022/02/11 09:52:24;;;;;;;;;;;;;;;;;;5083209;28;20371;-63
2022/02/11 09:55:31;;;;;;;;;;;;;;;;;;5083656;28;19923;-64
2022/02/11 09:57:35;;;;;;;;;;;;;;;;;;5083778;28;19908;-63
2022/02/11 10:00:02;;;;;;;;;;;;;;;;;;5086868;28;19948;-63
2022/02/11 10:02:28;;;;;;;;;;;;;;;;;;5088134;28;19908;-64
2022/02/11 10:04:54;;;;;;;;;;;;;;;;;;5083027;28;19919;-64
2022/02/11 10:07:20;;;;;;;;;;;;;;;;;;5083283;28;20471;-64
2022/02/11 10:09:46;;;;;;;;;;;;;;;;;;5083539;28;19904;-64
2022/02/11 10:12:11;;;;;;;;;;;;;;;;;;5083698;28;19908;-63
2022/02/11 10:14:37;;;;;;;;;;;;;;;;;;5090354;28;19976;-63
2022/02/11 10:17:03;;;;;;;;;;;;;;;;;;5083014;28;19946;-64
2022/02/11 10:19:29;;;;;;;;;;;;;;;;;;5082849;28;20315;-63
2022/02/11 10:21:55;;;;;;;;;;;;;;;;;;5082950;28;19915;-64
2022/02/11 10:24:21;;;;;;;;;;;;;;;;;;5082632;28;20360;-63
2022/02/11 10:26:48;;;;;;;;;;;;;;;;;;5088873;28;20045;-63
2022/02/11 10:29:14;;;;;;;;;;;;;;;;;;5077242;28;19958;-63
2022/02/11 10:31:41;;;;;;;;;;;;;;;;;;5079362;28;20007;-64
2022/02/11 10:34:08;;;;;;;;;;;;;;;;;;5082606;28;20055;-64
2022/02/11 10:36:34;;;;;;;;;;;;;;;;;;5081953;28;19916;-64
2022/02/11 10:38:59;;;;;;;;;;;;;;;;;;5086434;28;20328;-64
2022/02/11 10:41:26;;;;;;;;;;;;;;;;;;5087255;28;19904;-64
2022/02/11 10:43:52;;;;;;;;;;;;;;;;;;5082675;28;19908;-63
2022/02/11 10:46:19;;;;;;;;;;;;;;;;;;5082493;28;20363;-64
2022/02/11 10:48:45;;;;;;;;;;;;;;;;;;5082035;28;19995;-63
2022/02/11 10:51:11;;;;;;;;;;;;;;;;;;5083343;28;19940;-63
2022/02/11 10:53:41;;;;;;;;;;;;;;;;;;5089909;28;19962;-63
2022/02/11 10:56:07;;;;;;;;;;;;;;;;;;5080973;28;19947;-63
2022/02/11 10:58:34;;;;;;;;;;;;;;;;;;5081922;28;20370;-63
2022/02/11 11:01:05;;;;;;;;;;;;;;;;;;5082580;28;20375;-64
2022/02/11 11:03:34;;;;;;;;;;;;;;;;;;5082082;28;19912;-64
2022/02/11 11:06:00;;;;;;;;;;;;;;;;;;5086189;28;19965;-64
2022/02/11 11:08:29;;;;;;;;;;;;;;;;;;5086248;28;19908;-64
2022/02/11 11:10:55;;;;;;;;;;;;;;;;;;5082569;28;19975;-64
2022/02/11 11:13:21;;;;;;;;;;;;;;;;;;5082313;28;19956;-64
2022/02/11 11:15:47;;;;;;;;;;;;;;;;;;5082726;28;19962;-64
2022/02/11 11:18:13;;;;;;;;;;;;;;;;;;5082301;28;19965;-64
2022/02/11 11:20:39;;;;;;;;;;;;;;;;;;5089940;28;19907;-64
2022/02/11 11:23:05;;;;;;;;;;;;;;;;;;5082501;28;20049;-64
2022/02/11 11:25:31;;;;;;;;;;;;;;;;;;5081863;28;19923;-64
2022/02/11 11:27:57;;;;;;;;;;;;;;;;;;5082012;28;19981;-64
2022/02/11 11:30:23;;;;;;;;;;;;;;;;;;5070371;28;20348;-64
2022/02/11 11:32:49;;;;;;;;;;;;;;;;;;5087862;28;19908;-64
2022/02/11 11:35:15;;;;;;;;;;;;;;;;;;5085987;28;19916;-65
2022/02/11 11:37:42;;;;;;;;;;;;;;;;;;5081544;28;19912;-64
2022/02/11 11:40:08;;;;;;;;;;;;;;;;;;5082296;28;20279;-64
2022/02/11 11:42:33;;;;;;;;;;;;;;;;;;5081924;28;19916;-65
2022/02/11 11:45:00;;;;;;;;;;;;;;;;;;5085737;28;19908;-64
2022/02/11 11:47:27;;;;;;;;;;;;;;;;;;5085981;28;19911;-64
2022/02/11 11:49:53;;;;;;;;;;;;;;;;;;5082117;28;20375;-65
2022/02/11 11:52:20;;;;;;;;;;;;;;;;;;5081883;28;19908;-65
2022/02/11 11:54:46;;;;;;;;;;;;;;;;;;5081331;28;19908;-65
2022/02/11 11:57:12;;;;;;;;;;;;;;;;;;5082717;28;19995;-65
2022/02/11 11:59:38;;;;;;;;;;;;;;;;;;5089837;28;19911;-65
2022/02/11 12:02:04;;;;;;;;;;;;;;;;;;5081634;28;20264;-65
2022/02/11 12:04:30;;;;;;;;;;;;;;;;;;5081447;28;19919;-65
2022/02/11 12:06:56;;;;;;;;;;;;;;;;;;5083413;28;19912;-65
2022/02/11 12:09:22;;;;;;;;;;;;;;;;;;5085643;28;20025;-65
2022/02/11 12:11:48;;;;;;;;;;;;;;;;;;5091562;28;19904;-65
2022/02/11 12:14:14;;;;;;;;;;;;;;;;;;5085695;28;19904;-65
2022/02/11 12:16:40;;;;;;;;;;;;;;;;;;5084851;28;19956;-65
2022/02/11 12:19:06;;;;;;;;;;;;;;;;;;5084542;28;20410;-65
2022/02/11 12:21:33;;;;;;;;;;;;;;;;;;5084998;28;19970;-65
2022/02/11 12:29:28;;;;;;;;;;;;;;;;;;5079950;28;19950;-65
2022/02/11 12:31:57;;;;;;;;;;;;;;;;;;5083361;28;19998;-64
2022/02/11 12:34:24;;;;;;;;;;;;;;;;;;5085329;28;19908;-65
2022/02/11 12:36:50;;;;;;;;;;;;;;;;;;5084653;28;19955;-65
2022/02/11 12:39:16;;;;;;;;;;;;;;;;;;5084114;28;20365;-65
2022/02/11 12:41:43;;;;;;;;;;;;;;;;;;5093141;28;19904;-64
2022/02/11 12:44:09;;;;;;;;;;;;;;;;;;5090920;28;20356;-66
2022/02/11 12:46:35;;;;;;;;;;;;;;;;;;5079993;28;19930;-65
2022/02/11 12:49:01;;;;;;;;;;;;;;;;;;5084024;28;19946;-65
2022/02/11 12:51:26;;;;;;;;;;;;;;;;;;5084724;28;19915;-65
2022/02/11 12:53:52;;;;;;;;;;;;;;;;;;5089623;28;20379;-65
2022/02/11 12:56:18;;;;;;;;;;;;;;;;;;5087602;28;19952;-65
2022/02/11 12:58:44;;;;;;;;;;;;;;;;;;5084336;28;19908;-65
2022/02/11 13:01:10;;;;;;;;;;;;;;;;;;5084393;28;20048;-65
2022/02/11 13:03:36;;;;;;;;;;;;;;;;;;5084348;28;19975;-66
2022/02/11 13:06:04;;;;;;;;;;;;;;;;;;5087929;28;20362;-65
2022/02/11 13:08:30;;;;;;;;;;;;;;;;;;5089503;28;19907;-65
2022/02/11 13:10:56;;;;;;;;;;;;;;;;;;5084425;28;20350;-66
2022/02/11 13:13:22;;;;;;;;;;;;;;;;;;5084535;28;19955;-65
2022/02/11 13:15:48;;;;;;;;;;;;;;;;;;5084044;28;20367;-66
2022/02/11 13:18:14;;;;;;;;;;;;;;;;;;5083541;28;19908;-65
2022/02/11 13:20:40;;;;;;;;;;;;;;;;;;5091934;28;19911;-65
2022/02/11 13:23:05;;;;;;;;;;;;;;;;;;5083574;28;20394;-65
2022/02/11 13:25:31;;;;;;;;;;;;;;;;;;5084598;28;20108;-65
2022/02/11 13:27:57;;;;;;;;;;;;;;;;;;5084200;28;20477;-65
2022/02/11 13:30:24;;;;;;;;;;;;;;;;;;5072557;28;19909;-66
2022/02/11 13:32:49;;;;;;;;;;;;;;;;;;5090184;28;19934;-65
2022/02/11 13:35:15;;;;;;;;;;;;;;;;;;5087225;28;19912;-65
2022/02/11 13:37:41;;;;;;;;;;;;;;;;;;5083774;28;19904;-65
2022/02/11 13:40:07;;;;;;;;;;;;;;;;;;5083879;28;19912;-65
2022/02/11 13:42:34;;;;;;;;;;;;;;;;;;5083761;28;19905;-65
2022/02/11 13:44:59;;;;;;;;;;;;;;;;;;5087872;28;19957;-65
2022/02/11 13:47:25;;;;;;;;;;;;;;;;;;5088305;28;19996;-65
2022/02/11 13:49:53;;;;;;;;;;;;;;;;;;5083089;28;20348;-64
2022/02/11 13:55:03;;;;;;;;;;;;;;;;;;5083746;28;19919;-65
2022/02/11 13:57:29;;;;;;;;;;;;;;;;;;5083614;28;19913;-65
2022/02/11 13:59:55;;;;;;;;;;;;;;;;;;5087607;28;19954;-65
2022/02/11 14:02:21;;;;;;;;;;;;;;;;;;5086688;28;19908;-65
2022/02/11 14:04:47;;;;;;;;;;;;;;;;;;5083437;28;19904;-66
2022/02/11 14:07:13;;;;;;;;;;;;;;;;;;5083403;28;19912;-65
2022/02/11 14:09:39;;;;;;;;;;;;;;;;;;5083263;28;19904;-65
2022/02/11 14:12:05;;;;;;;;;;;;;;;;;;5085590;28;20410;-66
2022/02/11 14:14:32;;;;;;;;;;;;;;;;;;5088244;28;19907;-66
2022/02/11 14:16:58;;;;;;;;;;;;;;;;;;5083306;28;19994;-66
2022/02/11 14:19:24;;;;;;;;;;;;;;;;;;5082956;28;19999;-66
2022/02/11 14:21:50;;;;;;;;;;;;;;;;;;5082857;28;20042;-66
2022/02/11 14:24:16;;;;;;;;;;;;;;;;;;5082512;28;19921;-65
2022/02/11 14:26:42;;;;;;;;;;;;;;;;;;5090642;28;19912;-65
2022/02/11 14:29:08;;;;;;;;;;;;;;;;;;5075913;28;20410;-65
2022/02/11 14:31:34;;;;;;;;;;;;;;;;;;5078367;28;19966;-65
2022/02/11 14:34:00;;;;;;;;;;;;;;;;;;5082515;28;20109;-65
2022/02/11 14:36:26;;;;;;;;;;;;;;;;;;5082448;28;19909;-65
2022/02/11 14:38:51;;;;;;;;;;;;;;;;;;5088395;28;19912;-65
2022/02/11 14:44:02;;;;;;;;;;;;;;;;;;5082189;28;20011;-65
2022/02/11 14:46:28;;;;;;;;;;;;;;;;;;5082431;28;19998;-67
2022/02/11 14:48:54;;;;;;;;;;;;;;;;;;5084031;28;20023;-65
2022/02/11 14:51:20;;;;;;;;;;;;;;;;;;5082580;28;19912;-65
2022/02/11 14:53:46;;;;;;;;;;;;;;;;;;5089818;28;19969;-65
2022/02/11 14:56:12;;;;;;;;;;;;;;;;;;5083464;28;20705;-65
2022/02/11 14:58:38;;;;;;;;;;;;;;;;;;5082013;28;20007;-66
2022/02/11 15:01:04;;;;;;;;;;;;;;;;;;5082273;28;20422;-66
2022/02/11 15:03:30;;;;;;;;;;;;;;;;;;5082501;28;20082;-65
2022/02/11 15:05:56;;;;;;;;;;;;;;;;;;5087559;28;19918;-66
2022/02/11 15:08:21;;;;;;;;;;;;;;;;;;5085233;28;19904;-66
2022/02/11 15:10:47;;;;;;;;;;;;;;;;;;5081063;28;20380;-66
2022/02/11 15:13:13;;;;;;;;;;;;;;;;;;5082271;28;19908;-66
2022/02/11 15:15:41;;;;;;;;;;;;;;;;;;5082219;28;19915;-67
2022/02/11 15:18:06;;;;;;;;;;;;;;;;;;5084951;28;19917;-67
2022/02/11 15:20:32;;;;;;;;;;;;;;;;;;5087844;28;20011;-67
2022/02/11 15:22:58;;;;;;;;;;;;;;;;;;5081561;28;20354;-67
2022/02/11 15:25:24;;;;;;;;;;;;;;;;;;5081993;28;19955;-67
2022/02/11 15:27:50;;;;;;;;;;;;;;;;;;5082079;28;19912;-66
2022/02/11 15:30:16;;;;;;;;;;;;;;;;;;5070044;28;19908;-66
2022/02/11 15:32:42;;;;;;;;;;;;;;;;;;5090025;28;20305;-67
2022/02/11 15:35:08;;;;;;;;;;;;;;;;;;5081771;28;20282;-67
2022/02/11 15:37:34;;;;;;;;;;;;;;;;;;5082041;28;19908;-66
2022/02/11 15:39:59;;;;;;;;;;;;;;;;;;5082109;28;19930;-66
2022/02/11 15:42:26;;;;;;;;;;;;;;;;;;5084409;28;19959;-67
2022/02/11 15:44:52;;;;;;;;;;;;;;;;;;5090998;28;19948;-67
2022/02/11 15:47:18;;;;;;;;;;;;;;;;;;5088291;28;19959;-67
2022/02/11 15:49:43;;;;;;;;;;;;;;;;;;5086167;28;19960;-66
2022/02/11 15:52:11;;;;;;;;;;;;;;;;;;5085328;28;20355;-67
2022/02/11 15:54:37;;;;;;;;;;;;;;;;;;5085794;28;19908;-66
2022/02/11 15:57:03;;;;;;;;;;;;;;;;;;5088541;28;19962;-67
2022/02/11 15:59:29;;;;;;;;;;;;;;;;;;5091091;28;19998;-66
2022/02/11 16:01:55;;;;;;;;;;;;;;;;;;5085421;28;19961;-66
2022/02/11 16:04:21;;;;;;;;;;;;;;;;;;5085746;28;19908;-66
2022/02/11 16:06:47;;;;;;;;;;;;;;;;;;5085113;28;20367;-66
2022/02/11 16:09:13;;;;;;;;;;;;;;;;;;5084759;28;19909;-66
2022/02/11 16:11:39;;;;;;;;;;;;;;;;;;5077654;28;19908;-67
2022/02/11 16:14:05;;;;;;;;;;;;;;;;;;5084339;28;19989;-67
2022/02/11 16:16:31;;;;;;;;;;;;;;;;;;5086900;28;20052;-67
2022/02/11 16:18:57;;;;;;;;;;;;;;;;;;5084252;28;19908;-67
2022/02/11 16:21:23;;;;;;;;;;;;;;;;;;5082122;28;19920;-67
2022/02/11 16:23:49;;;;;;;;;;;;;;;;;;5089894;28;19995;-64
2022/02/11 16:26:15;;;;;;;;;;;;;;;;;;5082950;28;19934;-64
2022/02/11 16:28:41;;;;;;;;;;;;;;;;;;5080380;28;19973;-65
2022/02/11 16:31:07;;;;;;;;;;;;;;;;;;5071478;28;19919;-64
2022/02/11 16:33:33;;;;;;;;;;;;;;;;;;5070188;28;19916;-64
2022/02/11 16:35:59;;;;;;;;;;;;;;;;;;5084980;28;19946;-64
2022/02/11 16:38:25;;;;;;;;;;;;;;;;;;5084422;28;19951;-64
2022/02/11 16:40:51;;;;;;;;;;;;;;;;;;5079230;28;20347;-64
2022/02/11 16:43:17;;;;;;;;;;;;;;;;;;5084228;28;19952;-63
2022/02/11 16:45:43;;;;;;;;;;;;;;;;;;5084788;28;19923;-64
2022/02/11 16:48:09;;;;;;;;;;;;;;;;;;5069159;28;20440;-64
2022/02/11 16:50:35;;;;;;;;;;;;;;;;;;5087155;28;19915;-65
2022/02/11 16:53:00;;;;;;;;;;;;;;;;;;5083708;28;20409;-64
2022/02/11 16:55:26;;;;;;;;;;;;;;;;;;5084879;28;19908;-64
2022/02/11 16:57:52;;;;;;;;;;;;;;;;;;5082845;28;19908;-64
2022/02/11 17:00:18;;;;;;;;;;;;;;;;;;5084601;28;19917;-64
2022/02/11 17:02:44;;;;;;;;;;;;;;;;;;5091785;28;19904;-64
2022/02/11 17:05:10;;;;;;;;;;;;;;;;;;5086212;28;19912;-61
2022/02/11 17:07:36;;;;;;;;;;;;;;;;;;5083476;28;19908;-62
2022/02/11 17:10:03;;;;;;;;;;;;;;;;;;5060123;28;20263;-61
2022/02/11 17:12:30;;;;;;;;;;;;;;;;;;5054305;28;19912;-62
2022/02/11 17:14:56;;;;;;;;;;;;;;;;;;5054066;28;19905;-61
2022/02/11 17:17:22;;;;;;;;;;;;;;;;;;5055104;28;19909;-62
2022/02/11 17:19:48;;;;;;;;;;;;;;;;;;5055512;28;19919;-61
2022/02/11 17:22:14;;;;;;;;;;;;;;;;;;5056286;28;19916;-61
2022/02/11 17:24:40;;;;;;;;;;;;;;;;;;5054884;28;20265;-61
2022/02/11 17:27:06;;;;;;;;;;;;;;;;;;5052038;28;19959;-63
2022/02/11 17:29:31;;;;;;;;;;;;;;;;;;5064652;28;19904;-62
2022/02/11 17:31:57;;;;;;;;;;;;;;;;;;5056635;28;19935;-64
2022/02/11 17:34:23;;;;;;;;;;;;;;;;;;5060208;28;20027;-60
2022/02/11 17:36:49;;;;;;;;;;;;;;;;;;5053346;28;19908;-62
2022/02/11 17:39:15;;;;;;;;;;;;;;;;;;5066074;28;19963;-62
2022/02/11 17:41:41;;;;;;;;;;;;;;;;;;5054548;28;19908;-59
2022/02/11 17:44:07;;;;;;;;;;;;;;;;;;5054682;28;19908;-62
2022/02/11 17:46:34;;;;;;;;;;;;;;;;;;5062317;28;19970;-59
2022/02/11 17:49:00;;;;;;;;;;;;;;;;;;5064093;28;20197;-63
2022/02/11 17:51:26;;;;;;;;;;;;;;;;;;5051356;28;20000;-63
2022/02/11 17:53:52;;;;;;;;;;;;;;;;;;5052581;28;19909;-62
2022/02/11 17:56:18;;;;;;;;;;;;;;;;;;5055516;28;19909;-61
2022/02/11 17:58:44;;;;;;;;;;;;;;;;;;5053999;28;20356;-67
2022/02/11 18:01:10;;;;;;;;;;;;;;;;;;5057988;28;19908;-65
2022/02/11 18:03:36;;;;;;;;;;;;;;;;;;5053135;28;20343;-66
2022/02/11 18:06:02;;;;;;;;;;;;;;;;;;5052246;28;19913;-66
2022/02/11 18:08:28;;;;;;;;;;;;;;;;;;5066058;28;20410;-66
2022/02/11 18:10:54;;;;;;;;;;;;;;;;;;5078457;28;20509;-67
2022/02/11 18:13:20;;;;;;;;;;;;;;;;;;5063435;28;19972;-66
2022/02/11 18:15:46;;;;;;;;;;;;;;;;;;5066498;28;19908;-66
2022/02/11 18:18:12;;;;;;;;;;;;;;;;;;5049370;28;20047;-66
2022/02/11 18:20:38;;;;;;;;;;;;;;;;;;5083588;28;19904;-67
2022/02/11 18:23:04;;;;;;;;;;;;;;;;;;5056120;28;19932;-66
2022/02/11 18:25:29;;;;;;;;;;;;;;;;;;5071567;28;20452;-67
2022/02/11 18:27:58;;;;;;;;;;;;;;;;;;5081662;28;20414;-67
2022/02/11 18:30:24;;;;;;;;;;;;;;;;;;5069513;28;19915;-67
2022/02/11 18:32:50;;;;;;;;;;;;;;;;;;5088118;28;20602;-66
2022/02/11 18:35:16;;;;;;;;;;;;;;;;;;5085130;28;19924;-67
2022/02/11 18:37:43;;;;;;;;;;;;;;;;;;5082845;28;20316;-67
2022/02/11 18:40:09;;;;;;;;;;;;;;;;;;5082404;28;20353;-66
2022/02/11 18:42:37;;;;;;;;;;;;;;;;;;5082562;28;19916;-67
2022/02/11 18:45:02;;;;;;;;;;;;;;;;;;5085551;28;19903;-67
2022/02/11 18:47:29;;;;;;;;;;;;;;;;;;5087601;28;19915;-67
2022/02/11 18:49:55;;;;;;;;;;;;;;;;;;5082611;28;19962;-67
2022/02/11 18:52:20;;;;;;;;;;;;;;;;;;5082852;28;19911;-67
2022/02/11 18:54:48;;;;;;;;;;;;;;;;;;5082071;28;19984;-67
2022/02/11 18:57:14;;;;;;;;;;;;;;;;;;5081962;28;20330;-67
2022/02/11 19:02:25;;;;;;;;;;;;;;;;;;5085231;28;19914;-67
2022/02/11 19:04:51;;;;;;;;;;;;;;;;;;5083793;28;19916;-67
2022/02/11 19:07:17;;;;;;;;;;;;;;;;;;5082194;28;19912;-67
2022/02/11 19:09:43;;;;;;;;;;;;;;;;;;5081990;28;20256;-66
2022/02/11 19:12:11;;;;;;;;;;;;;;;;;;5084067;28;19909;-67
2022/02/11 19:14:37;;;;;;;;;;;;;;;;;;5089472;28;20310;-67
2022/02/11 19:17:03;;;;;;;;;;;;;;;;;;5083259;28;19916;-67
2022/02/11 19:19:29;;;;;;;;;;;;;;;;;;5086244;28;19908;-67
2022/02/11 19:21:55;;;;;;;;;;;;;;;;;;5086424;28;20363;-67
2022/02/11 19:24:20;;;;;;;;;;;;;;;;;;5086281;28;20003;-66
2022/02/11 19:26:46;;;;;;;;;;;;;;;;;;5093122;28;19912;-67
2022/02/11 19:29:15;;;;;;;;;;;;;;;;;;5079993;28;19905;-67
2022/02/11 19:31:41;;;;;;;;;;;;;;;;;;5081880;28;20101;-67
2022/02/11 19:34:07;;;;;;;;;;;;;;;;;;5085586;28;20380;-67
2022/02/11 19:36:33;;;;;;;;;;;;;;;;;;5086779;28;19909;-67
2022/02/11 19:38:59;;;;;;;;;;;;;;;;;;5090890;28;19904;-67
2022/02/11 19:41:25;;;;;;;;;;;;;;;;;;5090090;28;20096;-67
2022/02/11 19:43:51;;;;;;;;;;;;;;;;;;5085641;28;20402;-67
2022/02/11 19:46:17;;;;;;;;;;;;;;;;;;5086912;28;19923;-65
2022/02/11 19:48:43;;;;;;;;;;;;;;;;;;5086030;28;19908;-65
2022/02/11 19:51:09;;;;;;;;;;;;;;;;;;5087829;28;19916;-65
2022/02/11 19:53:35;;;;;;;;;;;;;;;;;;5092107;28;19904;-65
2022/02/11 19:56:01;;;;;;;;;;;;;;;;;;5085327;28;19915;-67
2022/02/11 19:58:27;;;;;;;;;;;;;;;;;;5085729;28;19908;-67
2022/02/11 20:00:53;;;;;;;;;;;;;;;;;;5085711;28;19912;-65
2022/02/11 20:03:19;;;;;;;;;;;;;;;;;;5085384;28;20420;-66
2022/02/11 20:05:45;;;;;;;;;;;;;;;;;;5092031;28;20333;-66
2022/02/11 20:08:11;;;;;;;;;;;;;;;;;;5087822;28;19912;-66
2022/02/11 20:10:37;;;;;;;;;;;;;;;;;;5085634;28;19912;-67
2022/02/11 20:13:02;;;;;;;;;;;;;;;;;;5086716;28;20288;-67
2022/02/11 20:15:28;;;;;;;;;;;;;;;;;;5073883;28;19992;-66
2022/02/11 20:17:56;;;;;;;;;;;;;;;;;;5090747;28;19971;-67
2022/02/11 20:20:27;;;;;;;;;;;;;;;;;;5088366;28;19904;-66
2022/02/11 20:22:53;;;;;;;;;;;;;;;;;;5085158;28;19920;-67
2022/02/11 20:25:20;;;;;;;;;;;;;;;;;;5084938;28;19915;-67
2022/02/11 20:27:46;;;;;;;;;;;;;;;;;;5084485;28;19911;-67
2022/02/11 20:30:11;;;;;;;;;;;;;;;;;;5074645;28;20429;-66
2022/02/11 20:32:37;;;;;;;;;;;;;;;;;;5092723;28;19908;-67
2022/02/11 20:35:03;;;;;;;;;;;;;;;;;;5085303;28;20085;-67
2022/02/11 20:37:29;;;;;;;;;;;;;;;;;;5084616;28;19949;-67
2022/02/11 20:39:55;;;;;;;;;;;;;;;;;;5084677;28;19990;-67
2022/02/11 20:42:21;;;;;;;;;;;;;;;;;;5085101;28;19924;-67
2022/02/11 20:44:47;;;;;;;;;;;;;;;;;;5092008;28;20355;-67
2022/02/11 20:47:13;;;;;;;;;;;;;;;;;;5085590;28;19912;-67
2022/02/11 20:49:38;;;;;;;;;;;;;;;;;;5084885;28;20006;-67
2022/02/11 20:52:04;;;;;;;;;;;;;;;;;;5084329;28;19961;-67